createdAt,value
2022-10-17T00:00:00.196Z,10.63
2022-10-17T00:03:02.678Z,10.64
2022-10-17T00:06:08.269Z,10.55
2022-10-17T00:09:10.409Z,10.54
2022-10-17T00:12:12.738Z,10.46
2022-10-17T00:15:17.141Z,10.41
2022-10-17T00:18:19.498Z,10.40
2022-10-17T00:21:22.977Z,10.37
2022-10-17T00:24:25.381Z,10.35
2022-10-17T00:27:27.638Z,10.34
2022-10-17T00:30:30.304Z,10.29
2022-10-17T00:33:33.549Z,10.31
2022-10-17T00:36:35.935Z,10.30
2022-10-17T00:39:38.598Z,10.33
2022-10-17T00:42:40.957Z,10.29
2022-10-17T00:45:43.046Z,10.28
2022-10-17T00:48:49.998Z,10.32
2022-10-17T00:51:58.878Z,10.27
2022-10-17T00:55:18.014Z,10.19
2022-10-17T00:58:20.999Z,10.13
2022-10-17T01:01:23.676Z,10.21
2022-10-17T01:04:25.944Z,10.13
2022-10-17T01:07:33.162Z,10.06
2022-10-17T01:11:09.294Z,10.06
2022-10-17T01:14:20.738Z,10.05
2022-10-17T01:17:50.695Z,10.02
2022-10-17T01:21:21.363Z,9.98
2022-10-17T01:24:35.816Z,10.01
2022-10-17T01:28:00.421Z,9.98
2022-10-17T01:31:08.277Z,9.92
2022-10-17T01:34:14.422Z,9.89
2022-10-17T01:37:31.580Z,9.90
2022-10-17T01:40:42.927Z,9.87
2022-10-17T01:43:52.816Z,9.87
2022-10-17T01:47:03.437Z,9.84
2022-10-17T01:50:18.140Z,9.90
2022-10-17T01:53:37.551Z,9.86
2022-10-17T01:56:42.302Z,9.80
2022-10-17T01:59:49.558Z,9.81
2022-10-17T02:03:04.583Z,9.81
2022-10-17T02:06:07.774Z,9.77
2022-10-17T02:09:23.249Z,9.77
2022-10-17T02:12:44.847Z,9.83
2022-10-17T02:16:14.827Z,9.88
2022-10-17T02:19:24.048Z,9.76
2022-10-17T02:22:43.930Z,9.73
2022-10-17T02:25:59.765Z,9.71
2022-10-17T02:29:17.606Z,9.71
2022-10-17T02:32:52.094Z,9.68
2022-10-17T02:36:00.429Z,9.65
2022-10-17T02:39:05.611Z,9.57
2022-10-17T02:42:11.325Z,9.60
2022-10-17T02:45:15.643Z,9.59
2022-10-17T02:48:38.697Z,9.49
2022-10-17T02:51:52.922Z,9.40
2022-10-17T02:55:01.102Z,9.40
2022-10-17T02:58:12.078Z,9.37
2022-10-17T03:01:15.651Z,9.36
2022-10-17T03:04:19.518Z,9.31
2022-10-17T03:07:21.708Z,9.32
2022-10-17T03:10:24.123Z,9.28
2022-10-17T03:13:26.386Z,9.30
2022-10-17T03:16:28.942Z,9.28
2022-10-17T03:19:31.357Z,9.30
2022-10-17T03:22:34.050Z,9.34
2022-10-17T03:25:36.924Z,9.30
2022-10-17T03:28:40.797Z,9.31
2022-10-17T03:31:42.969Z,9.32
2022-10-17T03:34:45.797Z,9.29
2022-10-17T03:37:48.039Z,9.28
2022-10-17T03:40:56.880Z,9.27
2022-10-17T03:43:59.050Z,9.26
2022-10-17T03:47:02.435Z,9.27
2022-10-17T03:50:05.938Z,9.32
2022-10-17T03:53:08.678Z,9.31
2022-10-17T03:56:29.087Z,9.31
2022-10-17T03:59:32.342Z,9.33
2022-10-17T04:02:35.245Z,9.30
2022-10-17T04:05:37.627Z,9.31
2022-10-17T04:08:40.223Z,9.34
2022-10-17T04:11:43.078Z,9.37
2022-10-17T04:14:45.226Z,9.29
2022-10-17T04:17:49.568Z,9.28
2022-10-17T04:20:52.324Z,9.30
2022-10-17T04:23:56.106Z,9.30
2022-10-17T04:27:01.064Z,9.35
2022-10-17T04:30:03.866Z,9.42
2022-10-17T04:33:06.333Z,9.46
2022-10-17T04:36:14.096Z,9.48
2022-10-17T04:39:16.282Z,9.48
2022-10-17T04:42:18.707Z,9.55
2022-10-17T04:45:21.147Z,9.60
2022-10-17T04:48:24.498Z,9.60
2022-10-17T04:51:26.885Z,9.60
2022-10-17T04:54:31.657Z,9.62
2022-10-17T04:57:35.684Z,9.66
2022-10-17T05:00:38.775Z,9.67
2022-10-17T05:03:41.064Z,9.62
2022-10-17T05:06:43.430Z,9.66
2022-10-17T05:09:46.716Z,9.64
2022-10-17T05:12:50.308Z,9.64
2022-10-17T05:15:53.191Z,9.66
2022-10-17T05:18:57.844Z,9.68
2022-10-17T05:22:02.352Z,9.69
2022-10-17T05:25:05.204Z,9.73
2022-10-17T05:28:07.273Z,9.77
2022-10-17T05:31:11.631Z,9.78
2022-10-17T05:34:14.158Z,9.75
2022-10-17T05:37:16.791Z,9.76
2022-10-17T05:40:20.699Z,9.78
2022-10-17T05:43:26.962Z,9.80
2022-10-17T05:46:29.152Z,9.81
2022-10-17T05:49:44.707Z,9.83
2022-10-17T05:52:55.280Z,9.83
2022-10-17T05:56:03.110Z,9.85
2022-10-17T05:59:06.135Z,9.80
2022-10-17T06:02:12.185Z,9.76
2022-10-17T06:05:15.421Z,9.78
2022-10-17T06:08:19.907Z,9.88
2022-10-17T06:11:25.880Z,9.92
2022-10-17T06:14:28.279Z,10.00
2022-10-17T06:17:31.056Z,10.07
2022-10-17T06:20:33.273Z,10.14
2022-10-17T06:23:36.101Z,10.23
2022-10-17T06:26:38.478Z,10.28
2022-10-17T06:29:41.848Z,10.30
2022-10-17T06:32:44.476Z,10.36
2022-10-17T06:35:54.841Z,10.42
2022-10-17T06:38:57.280Z,10.50
2022-10-17T06:42:00.891Z,10.58
2022-10-17T06:45:08.513Z,10.61
2022-10-17T06:48:11.042Z,10.68
2022-10-17T06:51:14.385Z,10.73
2022-10-17T06:54:18.002Z,10.77
2022-10-17T06:57:20.591Z,10.86
2022-10-17T07:00:23.688Z,10.91
2022-10-17T07:03:26.437Z,10.94
2022-10-17T07:06:28.895Z,11.02
2022-10-17T07:09:32.864Z,11.03
2022-10-17T07:12:35.748Z,11.13
2022-10-17T07:15:38.787Z,11.19
2022-10-17T07:18:42.111Z,11.29
2022-10-17T07:21:44.235Z,11.35
2022-10-17T07:24:46.804Z,11.41
2022-10-17T07:27:50.540Z,11.49
2022-10-17T07:30:54.462Z,11.54
2022-10-17T07:33:58.965Z,11.61
2022-10-17T07:37:02.097Z,11.67
2022-10-17T07:40:06.581Z,11.74
2022-10-17T07:43:09.188Z,11.82
2022-10-17T07:46:12.331Z,11.88
2022-10-17T07:49:14.937Z,11.95
2022-10-17T07:52:17.333Z,12.00
2022-10-17T07:55:20.254Z,12.03
2022-10-17T07:58:22.333Z,12.13
2022-10-17T08:01:25.835Z,12.20
2022-10-17T08:04:29.019Z,12.27
2022-10-17T08:07:31.525Z,12.37
2022-10-17T08:10:33.937Z,12.49
2022-10-17T08:13:36.884Z,12.73
2022-10-17T08:16:40.362Z,12.97
2022-10-17T08:19:42.522Z,13.22
2022-10-17T08:22:52.049Z,13.46
2022-10-17T08:25:54.177Z,13.77
2022-10-17T08:28:56.928Z,14.00
2022-10-17T08:32:01.444Z,14.30
2022-10-17T08:35:04.976Z,14.64
2022-10-17T08:38:09.038Z,14.98
2022-10-17T08:41:23.997Z,15.28
2022-10-17T08:44:38.303Z,15.65
2022-10-17T08:47:51.964Z,16.06
2022-10-17T08:50:58.087Z,16.53
2022-10-17T08:54:16.801Z,16.97
2022-10-17T08:57:39.604Z,17.23
2022-10-17T09:01:00.832Z,17.48
2022-10-17T09:04:02.770Z,17.58
2022-10-17T09:07:17.125Z,17.66
2022-10-17T09:10:44.819Z,17.62
2022-10-17T09:13:54.479Z,17.65
2022-10-17T09:17:08.774Z,17.68
2022-10-17T09:20:21.341Z,17.52
2022-10-17T09:23:31.171Z,17.62
2022-10-17T09:26:33.592Z,17.57
2022-10-17T09:29:40.174Z,17.59
2022-10-17T09:32:47.616Z,17.56
2022-10-17T09:35:51.003Z,17.55
2022-10-17T09:38:59.010Z,17.44
2022-10-17T09:42:02.906Z,17.52
2022-10-17T09:45:26.024Z,17.62
2022-10-17T09:48:35.063Z,17.63
2022-10-17T09:51:38.788Z,17.66
2022-10-17T09:54:51.632Z,17.67
2022-10-17T09:57:59.696Z,17.81
2022-10-17T10:01:23.682Z,17.88
2022-10-17T10:04:30.200Z,18.00
2022-10-17T10:07:38.806Z,18.03
2022-10-17T10:10:43.269Z,18.11
2022-10-17T10:13:48.423Z,18.19
2022-10-17T10:16:53.761Z,18.19
2022-10-17T10:19:56.349Z,18.34
2022-10-17T10:23:06.270Z,18.34
2022-10-17T10:26:24.497Z,18.49
2022-10-17T10:29:50.823Z,18.63
2022-10-17T10:32:52.986Z,18.69
2022-10-17T10:36:01.987Z,18.57
2022-10-17T10:39:06.005Z,18.75
2022-10-17T10:42:19.892Z,18.84
2022-10-17T10:45:48.027Z,18.93
2022-10-17T10:48:59.670Z,18.88
2022-10-17T10:52:04.290Z,18.89
2022-10-17T10:55:29.618Z,19.07
2022-10-17T10:58:54.119Z,19.19
2022-10-17T11:02:15.448Z,19.28
2022-10-17T11:05:42.347Z,19.37
2022-10-17T11:08:57.423Z,19.37
2022-10-17T11:12:11.839Z,19.48
2022-10-17T11:15:25.232Z,19.56
2022-10-17T11:19:13.685Z,19.58
2022-10-17T11:22:26.673Z,19.75
2022-10-17T11:25:34.544Z,19.85
2022-10-17T11:28:37.487Z,19.86
2022-10-17T11:31:47.983Z,19.81
2022-10-17T11:34:56.908Z,19.75
2022-10-17T11:38:21.156Z,19.80
2022-10-17T11:41:37.504Z,19.90
2022-10-17T11:44:41.399Z,19.94
2022-10-17T11:47:54.232Z,20.06
2022-10-17T11:54:56.153Z,20.15
2022-10-17T11:58:19.854Z,20.24
2022-10-17T12:01:54.850Z,20.31
2022-10-17T12:05:10.092Z,20.26
2022-10-17T12:08:35.164Z,20.32
2022-10-17T12:11:56.911Z,20.24
2022-10-17T12:15:24.331Z,20.34
2022-10-17T12:18:29.883Z,20.35
2022-10-17T12:21:56.763Z,20.39
2022-10-17T12:25:01.654Z,20.42
2022-10-17T12:28:10.539Z,20.45
2022-10-17T12:31:15.970Z,20.47
2022-10-17T12:34:22.330Z,20.49
2022-10-17T12:37:42.747Z,20.48
2022-10-17T12:40:49.009Z,20.42
2022-10-17T12:43:53.910Z,20.46
2022-10-17T12:47:11.127Z,20.55
2022-10-17T12:51:17.681Z,20.57
2022-10-17T12:54:24.039Z,20.38
2022-10-17T12:57:51.618Z,20.37
2022-10-17T13:01:22.496Z,20.37
2022-10-17T13:04:20.063Z,20.35
2022-10-17T13:07:23.265Z,20.38
2022-10-17T13:10:29.016Z,20.44
2022-10-17T13:13:33.777Z,20.45
2022-10-17T13:16:51.033Z,20.61
2022-10-17T13:19:53.828Z,20.69
2022-10-17T13:23:00.054Z,20.67
2022-10-17T13:26:16.454Z,20.67
2022-10-17T13:29:21.167Z,20.61
2022-10-17T13:32:25.782Z,20.48
2022-10-17T13:39:12.526Z,20.48
2022-10-17T13:42:27.840Z,20.42
2022-10-17T13:45:36.851Z,20.41
2022-10-17T13:48:39.312Z,20.35
2022-10-17T13:51:47.015Z,20.27
2022-10-17T13:54:51.329Z,20.35
2022-10-17T13:57:53.618Z,20.39
2022-10-17T14:00:56.667Z,20.37
2022-10-17T14:04:20.181Z,20.35
2022-10-17T14:07:46.190Z,20.34
2022-10-17T14:10:54.452Z,20.27
2022-10-17T14:13:57.998Z,20.31
2022-10-17T14:17:00.572Z,20.27
2022-10-17T14:20:29.686Z,20.33
2022-10-17T14:23:34.109Z,20.32
2022-10-17T14:26:50.265Z,20.25
2022-10-17T14:29:55.041Z,20.27
2022-10-17T14:33:01.433Z,20.20
2022-10-17T14:36:05.356Z,20.15
2022-10-17T14:39:18.329Z,20.06
2022-10-17T14:42:22.595Z,20.03
2022-10-17T14:45:30.815Z,19.90
2022-10-17T14:48:33.410Z,19.89
2022-10-17T14:51:50.188Z,19.83
2022-10-17T14:54:59.573Z,19.78
2022-10-17T14:58:01.789Z,19.69
2022-10-17T15:01:04.149Z,19.66
2022-10-17T15:04:10.649Z,19.57
2022-10-17T15:07:15.519Z,19.48
2022-10-17T15:10:35.157Z,19.41
2022-10-17T15:13:42.187Z,19.34
2022-10-17T15:16:46.826Z,19.22
2022-10-17T15:19:50.684Z,19.12
2022-10-17T15:22:54.668Z,19.06
2022-10-17T15:25:57.030Z,18.99
2022-10-17T15:28:59.848Z,18.92
2022-10-17T15:32:05.368Z,18.86
2022-10-17T15:35:08.399Z,18.75
2022-10-17T15:38:17.779Z,18.69
2022-10-17T15:41:20.159Z,18.57
2022-10-17T15:44:22.918Z,18.44
2022-10-17T15:47:28.122Z,18.34
2022-10-17T15:50:30.929Z,18.24
2022-10-17T15:53:33.012Z,18.07
2022-10-17T15:56:39.998Z,17.99
2022-10-17T15:59:42.194Z,17.87
2022-10-17T16:02:44.803Z,17.80
2022-10-17T16:05:49.653Z,17.68
2022-10-17T16:08:52.342Z,17.59
2022-10-17T16:11:54.860Z,17.52
2022-10-17T16:14:57.274Z,17.41
2022-10-17T16:18:01.715Z,17.32
2022-10-17T16:21:06.448Z,17.23
2022-10-17T16:24:11.919Z,17.09
2022-10-17T16:27:14.032Z,16.97
2022-10-17T16:30:17.266Z,16.89
2022-10-17T16:33:19.353Z,16.86
2022-10-17T16:36:22.657Z,16.74
2022-10-17T16:39:24.802Z,16.63
2022-10-17T16:42:27.280Z,16.55
2022-10-17T16:45:30.246Z,16.47
2022-10-17T16:48:32.610Z,16.38
2022-10-17T16:51:35.842Z,16.26
2022-10-17T16:54:38.249Z,16.18
2022-10-17T17:00:50.969Z,16.04
2022-10-17T17:03:54.084Z,15.94
2022-10-17T17:06:56.529Z,15.85
2022-10-17T17:09:58.618Z,15.70
2022-10-17T17:13:01.723Z,15.66
2022-10-17T17:16:10.299Z,15.60
2022-10-17T17:19:15.162Z,15.53
2022-10-17T17:22:17.239Z,15.44
2022-10-17T17:25:19.564Z,15.36
2022-10-17T17:28:21.734Z,15.33
2022-10-17T17:31:27.497Z,15.23
2022-10-17T17:34:29.777Z,15.22
2022-10-17T17:37:32.409Z,15.18
2022-10-17T17:40:34.803Z,15.20
2022-10-17T17:43:37.155Z,15.14
2022-10-17T17:46:39.419Z,15.01
2022-10-17T17:49:41.745Z,15.00
2022-10-17T17:52:45.540Z,14.97
2022-10-17T17:55:47.905Z,14.96
2022-10-17T17:58:55.841Z,14.90
2022-10-17T18:01:58.248Z,14.82
2022-10-17T18:05:00.629Z,14.83
2022-10-17T18:08:04.746Z,14.78
2022-10-17T18:11:07.090Z,14.71
2022-10-17T18:14:12.458Z,14.64
2022-10-17T18:17:14.839Z,14.62
2022-10-17T18:20:16.965Z,14.57
2022-10-17T18:23:19.536Z,14.52
2022-10-17T18:26:21.604Z,14.47
2022-10-17T18:29:23.899Z,14.46
2022-10-17T18:32:25.999Z,14.33
2022-10-17T18:35:28.379Z,14.32
2022-10-17T18:38:31.191Z,14.33
2022-10-17T18:41:34.004Z,14.30
2022-10-17T18:44:36.113Z,14.26
2022-10-17T18:47:38.447Z,14.23
2022-10-17T18:50:40.499Z,14.25
2022-10-17T18:53:45.915Z,14.18
2022-10-17T18:56:51.075Z,14.02
2022-10-17T18:59:53.493Z,14.01
2022-10-17T19:02:55.536Z,14.00
2022-10-17T19:06:02.602Z,13.96
2022-10-17T19:09:06.955Z,13.90
2022-10-17T19:12:09.413Z,13.88
2022-10-17T19:15:11.464Z,13.88
2022-10-17T19:18:13.801Z,13.82
2022-10-17T19:21:20.854Z,13.84
2022-10-17T19:24:26.880Z,13.78
2022-10-17T19:27:29.254Z,13.81
2022-10-17T19:30:31.918Z,13.85
2022-10-17T19:33:34.571Z,13.80
2022-10-17T19:36:37.634Z,13.76
2022-10-17T19:39:39.818Z,13.71
2022-10-17T19:42:42.162Z,13.70
2022-10-17T19:45:44.261Z,13.73
2022-10-17T19:48:46.843Z,13.66
2022-10-17T19:51:48.975Z,13.59
2022-10-17T19:54:51.370Z,13.56
2022-10-17T19:57:53.583Z,13.50
2022-10-17T20:00:58.514Z,13.45
2022-10-17T20:04:01.080Z,13.40
2022-10-17T20:07:03.507Z,13.39
2022-10-17T20:10:06.952Z,13.35
2022-10-17T20:13:09.774Z,13.30
2022-10-17T20:16:16.012Z,13.22
2022-10-17T20:19:19.095Z,13.15
2022-10-17T20:22:21.477Z,13.15
2022-10-17T20:25:23.611Z,13.07
2022-10-17T20:28:27.412Z,13.03
2022-10-17T20:31:29.915Z,13.02
2022-10-17T20:34:35.438Z,12.99
2022-10-17T20:37:41.581Z,12.93
2022-10-17T20:40:45.399Z,12.88
2022-10-17T20:43:51.290Z,12.83
2022-10-17T20:47:01.714Z,12.74
2022-10-17T20:50:05.002Z,12.69
2022-10-17T20:53:34.985Z,12.57
2022-10-17T20:56:31.497Z,12.51
2022-10-17T20:59:35.989Z,12.38
2022-10-17T21:02:38.065Z,12.27
2022-10-17T21:05:40.855Z,12.19
2022-10-17T21:08:43.853Z,12.22
2022-10-17T21:11:46.332Z,12.23
2022-10-17T21:14:48.425Z,12.11
2022-10-17T21:17:50.801Z,12.06
2022-10-17T21:20:52.875Z,12.06
2022-10-17T21:23:58.682Z,12.02
2022-10-17T21:27:00.825Z,11.98
2022-10-17T21:30:04.053Z,11.93
2022-10-17T21:33:06.156Z,11.93
2022-10-17T21:36:09.700Z,11.93
2022-10-17T21:39:13.014Z,11.87
2022-10-17T21:42:15.391Z,11.81
2022-10-17T21:45:25.297Z,11.69
2022-10-17T21:48:28.344Z,11.64
2022-10-17T21:51:30.425Z,11.63
2022-10-17T21:54:32.822Z,11.57
2022-10-17T21:57:34.899Z,11.45
2022-10-17T22:00:37.237Z,11.41
2022-10-17T22:03:45.673Z,11.32
2022-10-17T22:06:51.154Z,11.23
2022-10-17T22:09:53.707Z,11.13
2022-10-17T22:12:55.782Z,11.11
2022-10-17T22:16:02.315Z,11.06
2022-10-17T22:19:06.731Z,10.96
2022-10-17T22:22:09.411Z,11.00
2022-10-17T22:25:11.559Z,10.99
2022-10-17T22:28:13.905Z,10.99
2022-10-17T22:31:15.951Z,10.89
2022-10-17T22:34:18.615Z,10.82
2022-10-17T22:37:20.915Z,10.85
2022-10-17T22:40:23.257Z,10.82
2022-10-17T22:43:25.679Z,10.83
2022-10-17T22:46:28.351Z,10.80
2022-10-17T22:49:30.452Z,10.76
2022-10-17T22:52:33.027Z,10.81
2022-10-17T22:55:35.397Z,10.82
2022-10-17T22:58:38.431Z,10.84
2022-10-17T23:01:40.645Z,10.80
2022-10-17T23:04:43.021Z,10.80
2022-10-17T23:07:45.142Z,10.69
2022-10-17T23:10:48.257Z,10.62
2022-10-17T23:13:50.425Z,10.62
2022-10-17T23:16:52.790Z,10.60
2022-10-17T23:19:57.027Z,10.51
2022-10-17T23:23:00.102Z,10.47
2022-10-17T23:26:11.141Z,10.42
2022-10-17T23:29:13.483Z,10.42
2022-10-17T23:32:15.560Z,10.36
2022-10-17T23:35:17.960Z,10.30
2022-10-17T23:38:20.120Z,10.18
2022-10-17T23:41:22.479Z,10.27
2022-10-17T23:44:24.607Z,10.20
2022-10-17T23:47:26.977Z,10.13
2022-10-17T23:50:29.055Z,10.13
2022-10-17T23:53:31.590Z,10.10
2022-10-17T23:56:33.664Z,10.07
2022-10-17T23:59:36.231Z,10.04
